KBNW/BNW METAR and TAF weather

Enter ICAO airport designator
Station Type Date Time Source
KBNW METAR 2018/12/10 19:35 UTC NOAA

KBNW 101935Z AUTO 25015G22KT 10SM CLR M02/M06 A3018 RMK AO2


Station Type Date Time Source
KBNW Decoded METAR 2018/12/10 19:35 UTC NOAA

Boone Municipal, IA, United States (KBNW) 42-03N 093-51W
Dec 10, 2018 - 02:35 PM EST / 2018.12.10 1935 UTC
Wind: from the WSW (250 degrees) at 17 MPH (15 KT) gusting to 25 MPH (22 KT):0
Visibility: 10 mile(s):0
Sky conditions: clear
Temperature: 28 F (-2 C)
Windchill: 15 F (-9 C):1
Dew Point: 21 F (-6 C)
Relative Humidity: 74%
Pressure (altimeter): 30.18 in. Hg (1022 hPa)
ob: KBNW 101935Z AUTO 25015G22KT 10SM CLR M02/M06 A3018 RMK AO2
cycle: 19

Station Type Date Time Source
KBNW TAF UTC NOAA

Error!


Example: see airport list